Monson, Maine
Current Conditions -  °F | °C
As of 10:53 AM on Friday 24 Oct 2014 (Local Time) from KMLT Reporting Station
Overcast Overcast  
Wind Chill: 40°   Ceiling: 1300
Heat Index: 44°   Visibility: 8mi
Dew Point: 41°   Wind: 7mph
Humidity: 89%   Direction: NA
Pressure: 29.73"   Gusts: 16mph
Location:  45.29°N, 69.5°W
Report Text: KMLT 241453Z AUTO VRB06G14KT 8SM OVC013 07/05 A2973 RMK AO2 SLP074 60000 T00670050 55001
Loading
Personal Weather Stations






























Interactive Weather Map
Tropical Storm Tracking
New forecast layout! Learn more

10-Day Weather Forecast

Advertisements
Track Severe Weather on mobile